Terminal Aerodrome Forecast
Issued by NWS

Home | Current Version | Previous Version | Text Only | Print | Product List | Glossary On
Versions: 1 2 3 4 5 6 7 8 9 10 11 12 13
252
FTUS45 KABQ 302338
TAFTCC
TAF
KTCC 302338Z 0100/0124 20012G20KT P6SM SCT250
     FM010200 20010KT P6SM BKN110
     FM010600 23008KT P6SM FEW120
     FM011900 23010KT P6SM SCT090=

USA.gov is the U.S. government's official web portal to all federal, state and local government web resources and services.